Time;durP1;ratioP1;P1;durP2;ratioP2;P2;SDS_P1;SDS_P2;PMS_P1;PMS_P2;Temp;Humidity;BMP_temperature;BMP_pressure;BME280_temperature;BME280_humidity;BME280_pressure;Samples;Min_cycle;Max_cycle;Signal;HPM_P1;HPM_P2
2021/05/14 00:00:55;;;;;;;40.65;36.45;;;;;;;15.09;71.12;98842.73;127972;1104;22368;-76
2021/05/14 00:03:25;;;;;;;42.03;37.65;;;;;;;15.11;71.32;98845.98;128131;1102;22681;-76
2021/05/14 00:05:55;;;;;;;40.48;36.33;;;;;;;15.14;71.19;98853.49;128152;1102;22380;-76
2021/05/14 00:08:25;;;;;;;40.50;36.30;;;;;;;15.13;71.47;98850.03;128269;1101;22368;-76
2021/05/14 00:10:55;;;;;;;39.58;35.65;;;;;;;15.15;71.23;98850.58;128040;1103;22374;-76
2021/05/14 00:13:25;;;;;;;39.20;35.30;;;;;;;15.15;71.48;98863.88;128195;1100;22352;-75
2021/05/14 00:15:56;;;;;;;39.80;35.85;;;;;;;15.17;70.90;98875.11;128052;1101;22374;-74
2021/05/14 00:18:26;;;;;;;40.28;36.35;;;;;;;15.21;71.25;98870.94;128016;1101;22357;-74
2021/05/14 00:20:56;;;;;;;39.63;35.63;;;;;;;15.27;70.99;98850.58;128053;1101;22371;-75
2021/05/14 00:23:26;;;;;;;39.68;35.70;;;;;;;15.30;71.08;98850.11;128003;1100;24498;-75
2021/05/14 00:25:56;;;;;;;38.20;34.65;;;;;;;15.31;70.89;98843.73;127930;1105;22365;-76
2021/05/14 00:28:26;;;;;;;41.08;36.55;;;;;;;15.27;70.89;98863.88;127937;1104;22365;-75
2021/05/14 00:30:55;;;;;;;39.80;35.70;;;;;;;15.26;70.91;98879.03;127995;1104;23108;-75
2021/05/14 00:33:25;;;;;;;39.58;34.98;;;;;;;15.26;71.22;98871.05;127950;1104;22731;-75
2021/05/14 00:35:55;;;;;;;38.88;35.10;;;;;;;15.25;70.78;98874.73;127955;1104;22393;-75
2021/05/14 00:38:24;;;;;;;40.70;36.58;;;;;;;15.27;70.71;98885.16;128019;1104;22592;-75
2021/05/14 00:40:56;;;;;;;38.23;34.40;;;;;;;15.27;70.39;98880.64;127995;1101;24983;-74
2021/05/14 00:43:26;;;;;;;39.48;35.55;;;;;;;15.25;70.55;98874.73;127990;1102;22361;-75
2021/05/14 00:45:57;;;;;;;38.57;34.57;;;;;;;15.23;70.47;98878.70;128059;1102;22374;-75
2021/05/14 00:48:28;;;;;;;39.65;35.58;;;;;;;15.23;70.73;98884.02;128273;1098;24811;-75
2021/05/14 00:50:58;;;;;;;35.65;32.15;;;;;;;15.23;70.22;98881.36;128220;1099;22359;-75
2021/05/14 00:53:27;;;;;;;36.93;33.08;;;;;;;15.25;70.31;98881.91;128214;1101;23375;-74
2021/05/14 00:55:57;;;;;;;36.15;32.45;;;;;;;15.24;70.44;98885.63;128249;1101;24302;-75
2021/05/14 00:58:27;;;;;;;37.03;33.35;;;;;;;15.20;70.20;98879.16;128246;1098;24951;-75
2021/05/14 01:00:56;;;;;;;36.98;33.35;;;;;;;15.20;70.26;98881.83;128269;1098;22352;-75
2021/05/14 01:03:26;;;;;;;37.98;34.20;;;;;;;15.18;70.79;98873.25;128246;1099;25652;-74
2021/05/14 01:05:56;;;;;;;34.70;31.30;;;;;;;15.23;70.12;98889.34;128239;1098;24244;-75
2021/05/14 01:08:25;;;;;;;38.90;34.55;;;;;;;15.25;70.29;98881.91;128212;1101;22304;-75
2021/05/14 01:10:55;;;;;;;37.63;33.95;;;;;;;15.23;69.83;98878.70;128037;1101;22340;-75
2021/05/14 01:13:25;;;;;;;38.18;34.28;;;;;;;15.23;70.30;98884.02;127985;1101;22353;-74
2021/05/14 01:15:55;;;;;;;35.10;31.93;;;;;;;15.22;70.01;98875.20;128226;1101;22369;-75
2021/05/14 01:18:25;;;;;;;36.53;32.63;;;;;;;15.21;70.17;98878.11;128262;1101;22318;-75
2021/05/14 01:20:55;;;;;;;36.40;32.50;;;;;;;15.21;69.86;98872.79;128236;1101;22348;-75
2021/05/14 01:23:27;;;;;;;34.53;31.03;;;;;;;15.23;70.08;98868.05;128018;1099;22333;-76
2021/05/14 01:25:56;;;;;;;37.57;33.73;;;;;;;15.22;69.89;98871.73;128025;1101;22358;-75
2021/05/14 01:28:26;;;;;;;35.10;31.50;;;;;;;15.19;70.16;98878.33;128050;1101;22371;-74
2021/05/14 01:30:58;;;;;;;33.33;30.13;;;;;;;15.18;69.60;98870.59;128206;1099;25686;-75
2021/05/14 01:33:28;;;;;;;33.98;30.48;;;;;;;15.17;69.67;98875.11;128003;1101;22334;-74
2021/05/14 01:35:59;;;;;;;33.70;30.08;;;;;;;15.15;69.38;98874.52;128211;1101;22402;-74
2021/05/14 01:38:29;;;;;;;31.37;28.37;;;;;;;15.12;69.20;98876.84;128085;1102;22351;-74
2021/05/14 01:40:59;;;;;;;32.38;29.18;;;;;;;15.06;69.02;98876.75;127972;1102;22441;-74
2021/05/14 01:43:28;;;;;;;32.15;29.05;;;;;;;15.02;69.37;98877.42;128224;1101;22344;-73
2021/05/14 01:45:58;;;;;;;32.13;29.08;;;;;;;15.00;69.53;98875.02;128224;1101;22348;-74
2021/05/14 01:48:30;;;;;;;30.48;27.35;;;;;;;15.01;69.45;98878.48;127989;1098;22339;-74
2021/05/14 01:51:27;;;;;;;31.33;27.93;;;;;;;14.99;69.53;98876.03;128030;1101;22411;-74
2021/05/14 01:53:57;;;;;;;32.05;28.90;;;;;;;14.97;69.58;98872.81;128153;1098;22347;-73
2021/05/14 01:56:27;;;;;;;32.65;29.48;;;;;;;14.98;69.69;98885.06;128208;1100;24476;-75
2021/05/14 01:58:57;;;;;;;34.28;31.00;;;;;;;15.00;69.54;98880.33;128191;1100;24482;-75
2021/05/14 02:01:27;;;;;;;33.93;29.75;;;;;;;15.00;69.75;98882.19;128269;1098;22367;-74
2021/05/14 02:03:58;;;;;;;35.55;32.03;;;;;;;15.00;70.03;98879.53;128000;1102;22443;-76
2021/05/14 02:06:27;;;;;;;35.05;31.55;;;;;;;15.03;69.99;98893.17;128064;1098;24465;-75
2021/05/14 02:08:57;;;;;;;35.35;31.85;;;;;;;15.05;69.97;98890.27;128196;1101;22871;-76
2021/05/14 02:11:27;;;;;;;34.30;31.03;;;;;;;15.02;70.11;98896.84;128030;1101;22334;-75
2021/05/14 02:13:57;;;;;;;36.63;32.65;;;;;;;15.02;69.75;98891.53;128019;1100;24297;-75
2021/05/14 02:16:27;;;;;;;36.38;32.45;;;;;;;15.01;69.76;98889.12;128274;1101;22348;-76
2021/05/14 02:18:57;;;;;;;32.83;29.57;;;;;;;14.99;69.86;98888.52;128041;1101;22337;-75
2021/05/14 02:21:27;;;;;;;35.93;32.40;;;;;;;14.99;69.84;98891.98;128231;1098;24465;-76
2021/05/14 02:23:58;;;;;;;37.00;33.20;;;;;;;14.97;70.10;98890.63;128010;1101;23101;-74
2021/05/14 02:26:28;;;;;;;34.15;30.63;;;;;;;14.96;69.73;98884.50;128191;1101;22355;-75
2021/05/14 02:28:58;;;;;;;32.10;29.03;;;;;;;14.95;69.43;98890.84;127914;1104;22363;-75
2021/05/14 02:31:28;;;;;;;32.28;29.00;;;;;;;14.93;69.54;98890.28;127943;1102;22492;-75
2021/05/14 02:33:58;;;;;;;31.05;27.93;;;;;;;14.89;69.22;98889.11;127934;1101;22362;-75
2021/05/14 02:36:27;;;;;;;29.20;26.30;;;;;;;14.84;68.79;98891.66;127950;1104;22355;-75
2021/05/14 02:38:57;;;;;;;28.93;26.08;;;;;;;14.80;69.04;98893.97;127937;1101;24495;-75
2021/05/14 02:41:29;;;;;;;28.28;25.68;;;;;;;14.79;68.92;98902.16;127948;1104;22373;-76
2021/05/14 02:44:00;;;;;;;28.78;25.70;;;;;;;14.78;68.89;98896.05;127915;1104;22384;-75
2021/05/14 02:46:29;;;;;;;28.37;25.77;;;;;;;14.78;68.74;98905.88;127582;1106;22364;-76
2021/05/14 02:48:59;;;;;;;26.77;24.17;;;;;;;14.75;68.62;98901.81;127945;1104;22381;-76
2021/05/14 02:51:33;;;;;;;26.90;24.10;;;;;;;14.75;68.05;98903.67;127895;1101;24482;-76
2021/05/14 02:54:04;;;;;;;28.50;25.70;;;;;;;14.70;68.22;98903.56;127594;1105;22354;-74
2021/05/14 02:56:34;;;;;;;28.60;25.45;;;;;;;14.64;67.70;98899.16;127893;1104;22382;-75
2021/05/14 02:59:05;;;;;;;28.58;25.75;;;;;;;14.54;67.39;98910.36;127969;1104;22388;-75
2021/05/14 03:01:35;;;;;;;28.33;25.30;;;;;;;14.43;67.45;98903.13;127951;1104;22396;-74
2021/05/14 03:04:05;;;;;;;29.68;26.58;;;;;;;14.34;67.93;98906.13;127995;1104;22371;-74
2021/05/14 03:06:34;;;;;;;28.48;25.83;;;;;;;14.27;67.80;98902.75;127641;1106;22439;-75
2021/05/14 03:09:05;;;;;;;31.03;27.93;;;;;;;14.22;68.18;98909.77;127534;1107;22472;-75
2021/05/14 03:11:35;;;;;;;42.23;38.30;;;;;;;14.20;68.39;98909.21;127496;1107;22369;-74
2021/05/14 03:14:06;;;;;;;31.03;27.83;;;;;;;14.17;69.06;98907.00;127478;1105;22288;-74
2021/05/14 03:16:36;;;;;;;29.20;26.33;;;;;;;14.16;68.53;98913.33;127528;1108;22421;-75
2021/05/14 03:19:06;;;;;;;28.67;25.77;;;;;;;14.12;68.88;98915.63;127761;1104;22371;-74
2021/05/14 03:21:36;;;;;;;30.43;27.37;;;;;;;14.13;69.20;98918.08;127956;1104;22379;-74
2021/05/14 03:24:08;;;;;;;31.33;28.13;;;;;;;14.15;69.44;98920.49;127963;1104;23170;-74
2021/05/14 03:26:37;;;;;;;30.97;28.00;;;;;;;14.16;69.22;98921.30;127961;1101;24521;-75
2021/05/14 03:29:07;;;;;;;32.15;28.58;;;;;;;14.14;69.58;98929.50;128218;1098;22372;-75
2021/05/14 03:31:36;;;;;;;30.03;27.23;;;;;;;14.15;69.75;98925.00;128221;1098;24244;-75
2021/05/14 03:34:06;;;;;;;33.03;29.75;;;;;;;14.16;69.38;98924.79;128074;1102;23059;-75
2021/05/14 03:36:38;;;;;;;32.67;29.57;;;;;;;14.19;69.96;98931.47;128053;1103;22394;-75
2021/05/14 03:39:09;;;;;;;33.58;29.50;;;;;;;14.21;70.03;98932.07;128060;1102;22459;-75
2021/05/14 03:44:31;;;;;;;34.50;31.08;;;;;;;14.25;70.58;98933.23;127649;1104;22429;-76
2021/05/14 03:47:04;;;;;;;37.18;31.55;;;;;;;14.29;70.29;98934.39;127995;1101;24495;-75
2021/05/14 03:49:39;;;;;;;33.55;30.30;;;;;;;14.30;70.24;98933.38;127933;1101;22357;-73
2021/05/14 03:52:12;;;;;;;35.47;31.90;;;;;;;14.32;70.68;98939.25;128016;1105;22438;-75
2021/05/14 03:54:42;;;;;;;36.60;32.75;;;;;;;14.33;70.76;98940.89;127950;1102;22380;-75
2021/05/14 03:57:12;;;;;;;34.73;31.20;;;;;;;14.33;70.70;98947.02;127946;1101;24980;-75
2021/05/14 03:59:42;;;;;;;36.98;33.35;;;;;;;14.36;70.99;98938.59;127924;1101;24167;-75
2021/05/14 04:02:12;;;;;;;35.70;32.20;;;;;;;14.40;71.01;98946.11;128030;1101;22370;-74
2021/05/14 04:04:42;;;;;;;37.30;33.58;;;;;;;14.44;70.94;98942.77;128024;1101;22443;-74
2021/05/14 04:07:12;;;;;;;34.18;30.95;;;;;;;14.48;71.13;98940.45;128226;1100;24169;-74
2021/05/14 04:09:50;;;;;;;34.05;29.75;;;;;;;14.53;71.20;98943.29;128002;1101;22390;-74
2021/05/14 04:15:11;;;;;;;32.73;29.43;;;;;;;14.56;70.94;98948.13;128059;1101;22468;-75
2021/05/14 04:17:41;;;;;;;32.05;28.95;;;;;;;14.54;71.08;98944.91;128096;1102;22353;-75
2021/05/14 04:20:11;;;;;;;34.88;31.38;;;;;;;14.56;71.30;98938.33;128196;1101;22362;-74
2021/05/14 04:22:43;;;;;;;32.33;29.18;;;;;;;14.56;71.23;98943.64;128177;1098;25044;-75
2021/05/14 04:25:13;;;;;;;33.48;29.93;;;;;;;14.52;71.60;98947.77;128028;1101;22469;-75
2021/05/14 04:27:46;;;;;;;34.83;31.10;;;;;;;14.49;71.57;98947.38;128212;1100;24483;-75
2021/05/14 04:30:17;;;;;;;33.83;30.65;;;;;;;14.50;71.75;98952.52;128246;1101;22358;-75
2021/05/14 04:32:50;;;;;;;35.08;31.68;;;;;;;14.52;71.92;98955.73;128174;1101;22350;-76
2021/05/14 04:35:20;;;;;;;35.23;31.63;;;;;;;14.51;71.94;98954.13;128212;1099;24482;-76
2021/05/14 04:37:50;;;;;;;37.30;33.38;;;;;;;14.52;72.04;98960.25;128162;1101;22370;-74
2021/05/14 04:40:21;;;;;;;36.73;32.85;;;;;;;14.50;72.17;98952.52;127990;1099;24515;-74
2021/05/14 04:42:50;;;;;;;39.77;35.57;;;;;;;14.47;71.99;98960.11;128166;1101;22371;-74
2021/05/14 04:45:20;;;;;;;37.30;33.30;;;;;;;14.41;71.78;98959.16;128214;1100;22376;-74
2021/05/14 04:47:51;;;;;;;39.53;35.45;;;;;;;14.41;72.42;98958.35;128200;1101;22462;-75
2021/05/14 04:50:26;;;;;;;38.70;34.73;;;;;;;14.40;72.32;98956.73;127994;1101;22371;-75
2021/05/14 04:53:03;;;;;;;38.45;34.53;;;;;;;14.38;72.46;98969.42;128173;1098;25054;-75
2021/05/14 04:55:36;;;;;;;44.63;37.33;;;;;;;14.34;72.56;98953.13;128168;1098;23649;-75
2021/05/14 04:58:15;;;;;;;38.03;34.18;;;;;;;14.33;72.95;98948.86;127965;1101;22350;-75
2021/05/14 05:00:48;;;;;;;39.63;35.57;;;;;;;14.34;73.04;98953.94;128172;1100;22897;-74
2021/05/14 05:03:20;;;;;;;41.33;35.08;;;;;;;14.36;73.06;98954.53;128199;1101;22538;-75
2021/05/14 05:05:51;;;;;;;42.03;36.93;;;;;;;14.37;73.14;98958.00;128189;1098;24173;-75
2021/05/14 05:08:21;;;;;;;42.73;38.23;;;;;;;14.41;73.23;98961.01;128002;1101;22367;-75
2021/05/14 05:10:52;;;;;;;;;;;;;;;14.41;73.37;98959.16;128222;1101;22350;-75
2021/05/14 05:13:22;;;;;;;39.53;35.00;;;;;;;14.43;73.52;98958.91;127992;1102;21374;-75
2021/05/14 05:15:52;;;;;;;37.58;33.88;;;;;;;14.46;72.74;98963.78;128165;1101;22367;-75
2021/05/14 05:18:22;;;;;;;34.13;30.50;;;;;;;14.43;72.60;98967.72;128170;1098;24188;-75
2021/05/14 05:20:53;;;;;;;36.08;32.15;;;;;;;14.41;72.88;98969.78;128181;1098;22413;-75
2021/05/14 05:23:23;;;;;;;33.58;30.03;;;;;;;14.39;72.58;98977.16;127950;1101;22808;-74
2021/05/14 05:25:53;;;;;;;33.38;29.78;;;;;;;14.37;72.81;98979.25;128220;1100;22370;-76
2021/05/14 05:28:30;;;;;;;32.20;28.88;;;;;;;14.39;73.03;98971.84;128182;1101;22657;-76
2021/05/14 05:31:03;;;;;;;32.50;29.10;;;;;;;14.35;72.74;98979.45;128186;1101;22347;-76
2021/05/14 05:33:36;;;;;;;32.65;29.00;;;;;;;14.39;72.88;98979.81;128213;1101;22347;-75
2021/05/14 05:36:06;;;;;;;32.33;28.93;;;;;;;14.43;72.82;98978.34;128193;1098;22367;-75
2021/05/14 05:38:36;;;;;;;33.18;29.73;;;;;;;14.46;72.66;98980.55;128188;1098;22349;-75
2021/05/14 05:41:09;;;;;;;30.95;27.68;;;;;;;14.50;72.70;98981.75;128190;1101;22353;-75
2021/05/14 05:43:47;;;;;;;31.83;28.10;;;;;;;14.55;72.50;98989.03;128016;1099;25218;-75
2021/05/14 05:46:19;;;;;;;32.38;28.35;;;;;;;14.62;72.38;98989.73;128186;1101;22349;-74
2021/05/14 05:48:49;;;;;;;34.10;27.50;;;;;;;14.64;72.42;98984.21;128192;1101;22352;-74
2021/05/14 05:51:21;;;;;;;33.10;29.17;;;;;;;14.64;72.27;98990.33;128185;1098;24254;-74
2021/05/14 05:53:51;;;;;;;32.78;29.08;;;;;;;14.65;71.99;98991.14;127891;1101;24517;-75
2021/05/14 05:56:24;;;;;;;30.75;27.48;;;;;;;14.68;72.05;98994.15;127871;1104;22362;-73
2021/05/14 05:58:57;;;;;;;30.15;26.30;;;;;;;14.72;71.99;98997.97;127880;1104;22383;-74
2021/05/14 06:01:27;;;;;;;29.35;26.20;;;;;;;14.73;71.70;98999.61;127889;1105;22465;-73
2021/05/14 06:03:57;;;;;;;33.18;26.70;;;;;;;14.74;71.42;98995.09;127915;1101;25006;-74
2021/05/14 06:06:28;;;;;;;30.33;27.10;;;;;;;14.73;71.53;98994.30;127880;1105;22598;-75
2021/05/14 06:08:58;;;;;;;30.50;27.13;;;;;;;14.76;71.70;99000.98;127934;1104;22408;-74
2021/05/14 06:11:28;;;;;;;29.73;25.58;;;;;;;14.79;71.96;99008.50;127948;1101;22362;-77
2021/05/14 06:13:58;;;;;;;33.53;26.83;;;;;;;14.82;71.32;99002.73;128204;1101;22362;-75
2021/05/14 06:16:28;;;;;;;31.53;28.43;;;;;;;14.83;71.49;99012.34;127982;1101;22367;-76
2021/05/14 06:19:34;;;;;;;27.83;24.95;;;;;;;14.82;71.30;99006.19;128269;1098;22367;-74
2021/05/14 06:21:54;;;;;;;28.85;25.75;;;;;;;14.79;71.18;99019.13;128173;1100;24243;-75
2021/05/14 06:24:27;;;;;;;28.10;25.18;;;;;;;14.74;71.66;99022.48;128036;1102;22345;-77
2021/05/14 06:26:58;;;;;;;31.03;27.68;;;;;;;14.75;71.62;99015.31;128262;1100;24472;-78
2021/05/14 06:29:28;;;;;;;31.50;26.47;;;;;;;14.77;71.50;99026.55;128240;1101;22384;-76
2021/05/14 06:31:58;;;;;;;31.00;25.55;;;;;;;14.83;71.75;99029.11;128032;1101;23219;-78
2021/05/14 06:34:29;;;;;;;29.30;24.27;;;;;;;14.89;71.67;99040.66;128249;1098;24575;-76
2021/05/14 06:37:01;;;;;;;29.43;25.00;;;;;;;14.93;71.63;99027.74;128297;1098;24246;-78
2021/05/14 06:39:31;;;;;;;30.35;23.55;;;;;;;14.95;71.43;99031.77;128016;1102;22765;-77
2021/05/14 06:42:01;;;;;;;29.35;23.35;;;;;;;14.94;71.37;99030.16;128302;1101;24232;-77
2021/05/14 06:44:31;;;;;;;27.78;23.83;;;;;;;14.97;71.60;99032.37;128053;1102;22364;-78
2021/05/14 06:47:01;;;;;;;31.93;25.90;;;;;;;14.94;71.29;99038.14;128225;1101;22340;-78
2021/05/14 06:49:37;;;;;;;28.58;24.15;;;;;;;14.91;71.56;99041.25;128079;1102;23129;-78
2021/05/14 06:52:07;;;;;;;27.40;24.33;;;;;;;14.97;71.55;99048.32;128301;1100;22370;-77
2021/05/14 06:54:37;;;;;;;32.18;25.35;;;;;;;14.97;71.89;99045.66;128234;1101;22365;-76
2021/05/14 06:57:08;;;;;;;28.90;25.77;;;;;;;14.97;71.50;99053.64;128268;1099;22340;-78
2021/05/14 06:59:43;;;;;;;30.57;24.27;;;;;;;14.97;71.67;99053.64;128284;1098;23281;-77
2021/05/14 07:02:13;;;;;;;34.68;25.48;;;;;;;14.93;71.56;99043.70;127664;1105;22362;-77
2021/05/14 07:04:43;;;;;;;28.35;25.20;;;;;;;14.90;71.88;99054.78;127920;1104;22446;-77
2021/05/14 07:07:17;;;;;;;29.18;25.95;;;;;;;14.89;71.56;99053.95;127950;1104;22376;-78
2021/05/14 07:09:50;;;;;;;26.95;23.58;;;;;;;14.91;72.01;99062.52;127971;1104;22364;-76
2021/05/14 07:12:20;;;;;;;31.10;26.90;;;;;;;14.98;72.19;99060.57;127971;1105;22387;-79
2021/05/14 07:14:52;;;;;;;29.30;24.83;;;;;;;15.01;72.13;99061.97;128002;1101;22520;-76
2021/05/14 07:17:23;;;;;;;29.65;26.45;;;;;;;15.02;71.85;99061.73;127935;1101;22520;-78
2021/05/14 07:19:54;;;;;;;30.48;24.08;;;;;;;15.04;72.16;99069.50;127996;1104;22393;-76
2021/05/14 07:22:27;;;;;;;34.98;31.30;;;;;;;15.04;71.97;99067.64;127958;1104;22817;-76
2021/05/14 07:24:57;;;;;;;31.67;25.67;;;;;;;15.01;71.76;99062.78;128019;1101;22381;-76
2021/05/14 07:27:27;;;;;;;28.68;25.55;;;;;;;15.00;72.07;99071.80;127985;1098;22367;-79
2021/05/14 07:29:58;;;;;;;29.20;23.45;;;;;;;15.01;72.25;99077.92;128272;1098;22515;-76
2021/05/14 07:32:34;;;;;;;24.18;21.70;;;;;;;14.99;72.11;99079.99;128010;1101;22455;-77
2021/05/14 07:35:13;;;;;;;25.08;19.30;;;;;;;14.97;71.96;99090.87;128184;1101;22352;-76
2021/05/14 07:38:14;;;;;;;26.30;20.18;;;;;;;14.94;72.16;99085.20;128078;1099;25080;-77
2021/05/14 07:40:48;;;;;;;22.60;18.23;;;;;;;14.94;72.49;99087.86;128254;1102;22352;-79
2021/05/14 07:43:21;;;;;;;20.58;16.98;;;;;;;14.95;71.88;99086.81;127979;1101;22339;-78
2021/05/14 07:45:51;;;;;;;23.93;21.23;;;;;;;14.94;72.15;99091.32;128000;1102;22347;-80
2021/05/14 07:48:28;;;;;;;21.43;19.13;;;;;;;14.93;72.18;99095.02;128013;1101;22427;-78
2021/05/14 07:50:58;;;;;;;20.88;16.18;;;;;;;14.92;72.01;99093.38;128211;1101;22364;-78
2021/05/14 07:53:30;;;;;;;22.43;17.05;;;;;;;14.89;71.88;99093.83;128017;1100;22352;-78
2021/05/14 07:56:02;;;;;;;22.00;18.05;;;;;;;14.86;71.89;99099.63;128059;1101;22789;-78
2021/05/14 07:58:35;;;;;;;22.18;18.18;;;;;;;14.83;71.73;99097.42;128279;1101;22354;-79
2021/05/14 08:01:08;;;;;;;20.03;17.70;;;;;;;14.78;71.79;99094.61;128135;1098;24533;-79
2021/05/14 08:03:45;;;;;;;21.73;19.13;;;;;;;14.73;71.63;99089.98;127795;1102;22808;-79
2021/05/14 08:06:20;;;;;;;20.78;18.63;;;;;;;14.69;71.81;99103.94;127988;1105;22364;-78
2021/05/14 08:08:51;;;;;;;19.43;17.33;;;;;;;14.69;71.99;99110.05;127728;1101;22437;-79
2021/05/14 08:11:21;;;;;;;19.10;17.10;;;;;;;14.72;72.11;99098.17;127655;1101;22360;-78
2021/05/14 08:13:51;;;;;;;18.35;16.38;;;;;;;14.75;71.88;99111.82;127741;1105;22354;-78
2021/05/14 08:16:21;;;;;;;16.48;13.95;;;;;;;14.80;72.00;99111.97;127990;1104;22456;-77
2021/05/14 08:18:51;;;;;;;16.33;14.60;;;;;;;14.83;71.58;99110.72;127725;1105;22780;-77
2021/05/14 08:21:21;;;;;;;15.75;14.08;;;;;;;14.82;71.39;99101.91;127671;1098;24560;-79
2021/05/14 08:23:51;;;;;;;14.03;12.50;;;;;;;14.81;71.27;99110.12;128299;1101;22782;-78
2021/05/14 08:26:21;;;;;;;13.60;11.50;;;;;;;14.81;71.35;99110.12;128107;1098;24466;-78
2021/05/14 08:28:51;;;;;;;12.70;11.40;;;;;;;14.81;71.10;99110.12;128128;1102;22351;-79
2021/05/14 08:31:23;;;;;;;11.88;10.58;;;;;;;14.80;71.18;99124.45;128104;1098;23202;-78
2021/05/14 08:33:53;;;;;;;11.88;10.68;;;;;;;14.81;70.80;99120.75;128068;1101;22385;-77
2021/05/14 08:36:23;;;;;;;11.90;9.83;;;;;;;14.83;70.96;99138.11;128309;1098;24457;-78
2021/05/14 08:38:54;;;;;;;11.38;10.28;;;;;;;14.81;70.95;99134.85;127988;1104;22342;-78
2021/05/14 08:41:28;;;;;;;12.03;10.75;;;;;;;14.82;70.44;99133.00;127975;1104;22433;-77
2021/05/14 08:43:59;;;;;;;12.85;11.55;;;;;;;14.83;70.48;99134.64;127977;1101;22710;-77
2021/05/14 08:46:31;;;;;;;14.48;11.43;;;;;;;14.85;70.31;99134.41;127543;1107;22350;-78
2021/05/14 08:49:16;;;;;;;13.18;11.78;;;;;;;14.82;70.77;99139.13;127607;1104;23656;-77
2021/05/14 08:51:50;;;;;;;13.37;11.00;;;;;;;14.83;70.41;99137.30;127530;1104;22355;-77
2021/05/14 08:54:19;;;;;;;14.95;12.18;;;;;;;14.82;70.47;99143.63;127531;1105;22521;-78
2021/05/14 08:56:49;;;;;;;13.08;11.28;;;;;;;14.81;70.89;99134.05;127688;1105;22362;-78
2021/05/14 08:59:19;;;;;;;15.30;12.10;;;;;;;14.87;70.74;99142.98;127563;1105;24498;-78
2021/05/14 09:01:50;;;;;;;14.63;12.50;;;;;;;14.92;70.73;99146.56;127574;1105;22362;-77
2021/05/14 09:04:20;;;;;;;13.15;11.85;;;;;;;14.96;70.27;99149.58;127668;1105;22383;-78
2021/05/14 09:06:50;;;;;;;13.23;11.90;;;;;;;14.94;69.60;99152.48;127950;1104;22390;-77
2021/05/14 09:09:20;;;;;;;12.65;11.25;;;;;;;14.99;70.15;99152.60;127959;1104;22475;-76
2021/05/14 09:11:54;;;;;;;13.68;12.38;;;;;;;15.02;70.11;99154.81;127504;1108;22458;-77
2021/05/14 09:14:44;;;;;;;14.08;12.50;;;;;;;15.08;69.68;99154.95;127452;1105;24508;-75
2021/05/14 09:17:16;;;;;;;16.75;13.23;;;;;;;15.11;69.40;99167.81;127658;1100;22369;-76
2021/05/14 09:19:48;;;;;;;14.25;12.53;;;;;;;15.12;69.16;99158.78;128050;1104;22368;-75
2021/05/14 09:22:25;;;;;;;15.73;12.05;;;;;;;15.13;69.12;99157.73;128032;1104;22381;-77
2021/05/14 09:25:06;;;;;;;15.33;13.18;;;;;;;15.14;69.21;99175.34;128048;1101;22437;-77
2021/05/14 09:27:40;;;;;;;16.05;12.40;;;;;;;15.14;69.14;99175.34;127955;1104;22421;-77
2021/05/14 09:30:12;;;;;;;15.08;12.75;;;;;;;15.14;69.13;99175.34;128125;1101;22367;-76
2021/05/14 09:32:50;;;;;;;17.80;13.28;;;;;;;15.12;68.72;99182.72;127944;1101;22396;-77
2021/05/14 09:35:22;;;;;;;15.63;13.80;;;;;;;15.11;68.92;99186.42;127980;1104;22374;-77
2021/05/14 09:37:52;;;;;;;15.17;13.63;;;;;;;15.14;69.11;99188.64;127935;1101;24269;-76
2021/05/14 09:40:24;;;;;;;13.85;12.33;;;;;;;15.16;68.72;99186.55;127994;1104;22383;-76
2021/05/14 09:43:04;;;;;;;14.03;12.63;;;;;;;15.15;68.78;99188.40;127611;1105;22376;-76
2021/05/14 09:45:36;;;;;;;19.68;13.48;;;;;;;15.16;69.02;99191.86;128043;1104;22453;-76
2021/05/14 09:48:42;;;;;;;17.10;13.83;;;;;;;15.17;68.85;99186.34;127958;1102;22440;-76
2021/05/14 09:51:04;;;;;;;16.00;13.78;;;;;;;15.17;68.88;99196.17;128042;1098;22371;-76
2021/05/14 09:53:34;;;;;;;18.63;13.03;;;;;;;15.18;68.95;99192.46;128316;1101;22346;-76
2021/05/14 09:56:28;;;;;;;16.43;13.03;;;;;;;15.17;68.60;99193.51;128065;1100;22355;-77
2021/05/14 09:59:00;;;;;;;13.68;12.23;;;;;;;15.17;68.64;99196.98;128052;1098;23997;-76
2021/05/14 10:01:30;;;;;;;13.73;12.30;;;;;;;15.21;68.41;99207.97;128084;1101;22371;-76
2021/05/14 10:04:00;;;;;;;14.03;12.75;;;;;;;15.20;68.29;99203.70;128038;1102;22481;-76
2021/05/14 10:06:32;;;;;;;17.45;14.60;;;;;;;15.20;68.20;99203.70;128247;1101;24297;-76
2021/05/14 10:09:08;;;;;;;11.98;10.65;;;;;;;15.20;68.52;99207.17;128050;1098;22379;-75
2021/05/14 10:11:38;;;;;;;13.30;9.68;;;;;;;15.20;68.44;99206.36;128245;1101;23113;-76
2021/05/14 10:14:08;;;;;;;13.93;10.28;;;;;;;15.20;68.26;99207.17;128243;1101;22823;-77
2021/05/14 10:16:38;;;;;;;12.20;9.93;;;;;;;15.19;68.57;99210.04;128036;1098;24482;-76
2021/05/14 10:19:09;;;;;;;10.65;9.65;;;;;;;15.20;68.10;99209.02;128079;1100;24533;-77
2021/05/14 10:21:44;;;;;;;8.35;7.55;;;;;;;15.22;68.69;99204.27;128228;1100;22443;-76
2021/05/14 10:24:39;;;;;;;9.00;8.05;;;;;;;15.26;68.59;99200.95;128367;1098;22378;-77
2021/05/14 10:27:23;;;;;;;10.18;8.40;;;;;;;15.27;68.67;99207.89;128028;1101;24469;-76
2021/05/14 10:29:56;;;;;;;9.00;7.75;;;;;;;15.29;68.91;99220.95;128082;1101;22920;-76
2021/05/14 10:32:54;;;;;;;8.48;7.68;;;;;;;15.30;68.53;99217.27;128290;1101;22336;-75
2021/05/14 10:35:30;;;;;;;8.90;8.00;;;;;;;15.29;68.56;99221.78;127618;1108;22601;-76
2021/05/14 10:38:00;;;;;;;9.68;8.78;;;;;;;15.29;68.57;99218.28;127536;1104;22538;-76
2021/05/14 10:40:50;;;;;;;9.83;8.18;;;;;;;15.26;68.19;99222.23;127108;1108;22389;-76
2021/05/14 10:43:21;;;;;;;12.33;9.80;;;;;;;15.25;68.54;99225.11;126707;1109;22418;-75
2021/05/14 10:46:03;;;;;;;11.63;9.65;;;;;;;15.30;68.76;99218.08;126722;1112;22417;-75
2021/05/14 10:48:59;;;;;;;10.00;8.65;;;;;;;15.35;68.73;99216.58;126644;1111;22415;-75
2021/05/14 10:52:02;;;;;;;9.48;8.43;;;;;;;15.40;69.10;99225.52;126983;1111;23131;-76
2021/05/14 10:54:42;;;;;;;10.05;9.05;;;;;;;15.42;68.29;99234.06;126656;1111;22515;-76
2021/05/14 10:57:13;;;;;;;10.10;9.10;;;;;;;15.41;68.22;99237.77;126662;1109;22488;-75
2021/05/14 10:59:44;;;;;;;12.30;9.68;;;;;;;15.37;67.73;99236.61;126975;1111;22423;-76
2021/05/14 11:02:31;;;;;;;10.75;9.68;;;;;;;15.34;67.88;99245.05;126990;1111;22534;-76
2021/05/14 11:05:01;;;;;;;9.25;8.45;;;;;;;15.29;67.92;99242.23;126964;1107;24239;-76
2021/05/14 11:07:51;;;;;;;10.20;9.20;;;;;;;15.25;67.99;99236.55;126982;1111;22523;-76
2021/05/14 11:10:35;;;;;;;10.15;9.18;;;;;;;15.25;68.26;99252.52;126960;1111;22396;-77
2021/05/14 11:13:45;;;;;;;12.23;10.55;;;;;;;15.24;68.15;99248.24;127133;1108;22365;-76
2021/05/14 11:16:38;;;;;;;11.35;9.63;;;;;;;15.22;67.96;99249.50;127116;1108;24211;-78
2021/05/14 11:19:31;;;;;;;11.23;10.13;;;;;;;15.25;68.49;99251.70;127063;1106;25126;-76
2021/05/14 11:22:23;;;;;;;8.63;7.83;;;;;;;15.26;68.28;99255.98;127081;1108;23088;-76
2021/05/14 11:25:13;;;;;;;8.95;8.00;;;;;;;15.28;68.08;99245.94;127093;1108;22413;-76
2021/05/14 11:27:45;;;;;;;10.20;8.93;;;;;;;15.32;68.16;99249.77;127195;1108;22404;-76
2021/05/14 11:30:17;;;;;;;10.30;9.25;;;;;;;15.40;68.58;99256.64;127620;1102;24891;-77
2021/05/14 11:32:49;;;;;;;10.43;9.33;;;;;;;15.47;67.98;99247.52;127576;1104;22462;-77
2021/05/14 11:35:21;;;;;;;10.75;9.65;;;;;;;15.53;67.84;99253.80;127670;1105;22378;-76
2021/05/14 11:38:01;;;;;;;12.45;10.63;;;;;;;15.62;67.75;99256.93;127944;1104;22484;-76
2021/05/14 11:40:40;;;;;;;12.05;10.00;;;;;;;15.67;67.52;99252.59;128042;1104;22388;-77
2021/05/14 11:43:11;;;;;;;16.70;10.57;;;;;;;15.78;67.20;99256.31;127967;1104;22380;-76